sensor_id;sensor_type;location;lat;lon;timestamp;P1;durP1;ratioP1;P2;durP2;ratioP2
14738;SDS011;7461;52.440;13.540;2023-03-01T00:01:28;31.50;;;28.63;;
14738;SDS011;7461;52.440;13.540;2023-03-01T00:03:56;30.77;;;27.77;;
14738;SDS011;7461;52.440;13.540;2023-03-01T00:06:24;29.55;;;26.98;;
14738;SDS011;7461;52.440;13.540;2023-03-01T00:08:51;33.17;;;29.95;;
14738;SDS011;7461;52.440;13.540;2023-03-01T00:11:19;28.55;;;25.63;;
14738;SDS011;7461;52.440;13.540;2023-03-01T00:13:47;29.83;;;27.25;;
14738;SDS011;7461;52.440;13.540;2023-03-01T00:16:18;33.13;;;30.02;;
14738;SDS011;7461;52.440;13.540;2023-03-01T00:18:46;34.38;;;31.40;;
14738;SDS011;7461;52.440;13.540;2023-03-01T00:21:13;33.53;;;30.35;;
14738;SDS011;7461;52.440;13.540;2023-03-01T00:23:41;32.20;;;29.27;;
14738;SDS011;7461;52.440;13.540;2023-03-01T00:26:09;32.05;;;29.10;;
14738;SDS011;7461;52.440;13.540;2023-03-01T00:28:36;29.88;;;27.20;;
14738;SDS011;7461;52.440;13.540;2023-03-01T00:31:04;31.95;;;28.92;;
14738;SDS011;7461;52.440;13.540;2023-03-01T00:33:33;33.60;;;30.40;;
14738;SDS011;7461;52.440;13.540;2023-03-01T00:36:00;31.50;;;28.73;;
14738;SDS011;7461;52.440;13.540;2023-03-01T00:38:28;32.85;;;29.55;;
14738;SDS011;7461;52.440;13.540;2023-03-01T00:40:56;33.20;;;30.25;;
14738;SDS011;7461;52.440;13.540;2023-03-01T00:43:29;31.38;;;28.55;;
14738;SDS011;7461;52.440;13.540;2023-03-01T00:46:01;33.35;;;30.02;;
14738;SDS011;7461;52.440;13.540;2023-03-01T00:48:28;28.77;;;26.30;;
14738;SDS011;7461;52.440;13.540;2023-03-01T00:50:57;29.98;;;27.35;;
14738;SDS011;7461;52.440;13.540;2023-03-01T00:53:24;28.10;;;25.65;;
14738;SDS011;7461;52.440;13.540;2023-03-01T00:55:51;30.38;;;27.17;;
14738;SDS011;7461;52.440;13.540;2023-03-01T00:58:19;29.90;;;26.92;;
14738;SDS011;7461;52.440;13.540;2023-03-01T01:00:46;29.67;;;26.92;;
14738;SDS011;7461;52.440;13.540;2023-03-01T01:03:13;29.50;;;26.63;;
14738;SDS011;7461;52.440;13.540;2023-03-01T01:05:40;27.00;;;24.42;;
14738;SDS011;7461;52.440;13.540;2023-03-01T01:08:09;28.13;;;25.65;;
14738;SDS011;7461;52.440;13.540;2023-03-01T01:10:36;30.02;;;27.23;;
14738;SDS011;7461;52.440;13.540;2023-03-01T01:13:04;29.92;;;26.98;;
14738;SDS011;7461;52.440;13.540;2023-03-01T01:15:33;26.50;;;24.00;;
14738;SDS011;7461;52.440;13.540;2023-03-01T01:18:00;27.23;;;24.73;;
14738;SDS011;7461;52.440;13.540;2023-03-01T01:20:28;28.90;;;26.17;;
14738;SDS011;7461;52.440;13.540;2023-03-01T01:22:55;22.40;;;20.25;;
14738;SDS011;7461;52.440;13.540;2023-03-01T01:25:24;29.80;;;26.92;;
14738;SDS011;7461;52.440;13.540;2023-03-01T01:27:51;27.88;;;25.38;;
14738;SDS011;7461;52.440;13.540;2023-03-01T01:30:18;25.17;;;23.00;;
14738;SDS011;7461;52.440;13.540;2023-03-01T01:32:46;27.25;;;24.75;;
14738;SDS011;7461;52.440;13.540;2023-03-01T01:35:13;25.92;;;23.50;;
14738;SDS011;7461;52.440;13.540;2023-03-01T01:37:40;26.38;;;24.10;;
14738;SDS011;7461;52.440;13.540;2023-03-01T01:40:09;27.35;;;24.50;;
14738;SDS011;7461;52.440;13.540;2023-03-01T01:42:38;29.70;;;26.95;;
14738;SDS011;7461;52.440;13.540;2023-03-01T01:47:58;31.73;;;28.70;;
14738;SDS011;7461;52.440;13.540;2023-03-01T01:50:26;27.73;;;25.40;;
14738;SDS011;7461;52.440;13.540;2023-03-01T01:53:02;31.27;;;28.65;;
14738;SDS011;7461;52.440;13.540;2023-03-01T01:55:30;29.15;;;26.52;;
14738;SDS011;7461;52.440;13.540;2023-03-01T01:58:01;28.70;;;26.20;;
14738;SDS011;7461;52.440;13.540;2023-03-01T02:00:29;30.92;;;28.10;;
14738;SDS011;7461;52.440;13.540;2023-03-01T02:02:57;27.98;;;25.58;;
14738;SDS011;7461;52.440;13.540;2023-03-01T02:05:28;24.33;;;22.30;;
14738;SDS011;7461;52.440;13.540;2023-03-01T02:07:58;26.63;;;24.08;;
14738;SDS011;7461;52.440;13.540;2023-03-01T02:10:25;28.33;;;25.50;;
14738;SDS011;7461;52.440;13.540;2023-03-01T02:12:53;28.25;;;25.73;;
14738;SDS011;7461;52.440;13.540;2023-03-01T02:15:22;28.67;;;26.27;;
14738;SDS011;7461;52.440;13.540;2023-03-01T02:17:51;28.75;;;26.20;;
14738;SDS011;7461;52.440;13.540;2023-03-01T02:20:20;30.58;;;27.70;;
14738;SDS011;7461;52.440;13.540;2023-03-01T02:22:48;27.80;;;25.27;;
14738;SDS011;7461;52.440;13.540;2023-03-01T02:25:26;29.38;;;26.88;;
14738;SDS011;7461;52.440;13.540;2023-03-01T02:27:55;30.88;;;28.33;;
14738;SDS011;7461;52.440;13.540;2023-03-01T02:30:27;29.35;;;26.80;;
14738;SDS011;7461;52.440;13.540;2023-03-01T02:32:55;31.10;;;28.30;;
14738;SDS011;7461;52.440;13.540;2023-03-01T02:35:30;30.52;;;27.80;;
14738;SDS011;7461;52.440;13.540;2023-03-01T02:37:58;30.30;;;27.55;;
14738;SDS011;7461;52.440;13.540;2023-03-01T02:40:27;29.52;;;26.88;;
14738;SDS011;7461;52.440;13.540;2023-03-01T02:42:56;29.55;;;26.58;;
14738;SDS011;7461;52.440;13.540;2023-03-01T02:45:24;28.52;;;25.65;;
14738;SDS011;7461;52.440;13.540;2023-03-01T02:47:54;29.75;;;25.83;;
14738;SDS011;7461;52.440;13.540;2023-03-01T02:50:33;28.08;;;25.38;;
14738;SDS011;7461;52.440;13.540;2023-03-01T02:53:04;26.85;;;24.33;;
14738;SDS011;7461;52.440;13.540;2023-03-01T02:55:35;28.45;;;25.75;;
14738;SDS011;7461;52.440;13.540;2023-03-01T02:58:03;27.13;;;24.48;;
14738;SDS011;7461;52.440;13.540;2023-03-01T03:00:32;29.52;;;25.27;;
14738;SDS011;7461;52.440;13.540;2023-03-01T03:03:06;29.60;;;26.48;;
14738;SDS011;7461;52.440;13.540;2023-03-01T03:05:34;26.27;;;23.88;;
14738;SDS011;7461;52.440;13.540;2023-03-01T03:08:02;26.77;;;24.45;;
14738;SDS011;7461;52.440;13.540;2023-03-01T03:10:31;27.55;;;24.83;;
14738;SDS011;7461;52.440;13.540;2023-03-01T03:12:59;29.50;;;26.73;;
14738;SDS011;7461;52.440;13.540;2023-03-01T03:15:28;27.63;;;25.08;;
14738;SDS011;7461;52.440;13.540;2023-03-01T03:17:56;28.48;;;25.65;;
14738;SDS011;7461;52.440;13.540;2023-03-01T03:20:25;25.95;;;23.30;;
14738;SDS011;7461;52.440;13.540;2023-03-01T03:22:53;26.17;;;23.73;;
14738;SDS011;7461;52.440;13.540;2023-03-01T03:25:21;23.75;;;21.67;;
14738;SDS011;7461;52.440;13.540;2023-03-01T03:27:49;26.42;;;23.80;;
14738;SDS011;7461;52.440;13.540;2023-03-01T03:30:22;27.70;;;25.38;;
14738;SDS011;7461;52.440;13.540;2023-03-01T03:32:50;27.73;;;25.23;;
14738;SDS011;7461;52.440;13.540;2023-03-01T03:35:18;25.75;;;23.40;;
14738;SDS011;7461;52.440;13.540;2023-03-01T03:37:47;27.45;;;25.05;;
14738;SDS011;7461;52.440;13.540;2023-03-01T03:40:32;26.65;;;24.35;;
14738;SDS011;7461;52.440;13.540;2023-03-01T03:42:59;26.95;;;24.63;;
14738;SDS011;7461;52.440;13.540;2023-03-01T03:45:26;25.70;;;23.25;;
14738;SDS011;7461;52.440;13.540;2023-03-01T03:47:54;27.42;;;24.88;;
14738;SDS011;7461;52.440;13.540;2023-03-01T03:50:21;27.13;;;24.63;;
14738;SDS011;7461;52.440;13.540;2023-03-01T03:52:50;25.75;;;23.23;;
14738;SDS011;7461;52.440;13.540;2023-03-01T03:55:18;27.35;;;24.67;;
14738;SDS011;7461;52.440;13.540;2023-03-01T03:57:45;25.88;;;23.70;;
14738;SDS011;7461;52.440;13.540;2023-03-01T04:00:17;23.92;;;22.05;;
14738;SDS011;7461;52.440;13.540;2023-03-01T04:02:45;26.02;;;23.58;;
14738;SDS011;7461;52.440;13.540;2023-03-01T04:05:13;27.70;;;25.30;;
14738;SDS011;7461;52.440;13.540;2023-03-01T04:07:41;24.95;;;22.85;;
14738;SDS011;7461;52.440;13.540;2023-03-01T04:10:11;26.08;;;23.65;;
14738;SDS011;7461;52.440;13.540;2023-03-01T04:12:38;26.20;;;23.80;;
14738;SDS011;7461;52.440;13.540;2023-03-01T04:15:08;25.83;;;23.80;;
14738;SDS011;7461;52.440;13.540;2023-03-01T04:17:38;25.27;;;22.80;;
14738;SDS011;7461;52.440;13.540;2023-03-01T04:20:07;25.75;;;23.70;;
14738;SDS011;7461;52.440;13.540;2023-03-01T04:22:36;22.85;;;20.58;;
14738;SDS011;7461;52.440;13.540;2023-03-01T04:25:03;27.98;;;25.42;;
14738;SDS011;7461;52.440;13.540;2023-03-01T04:27:32;25.02;;;22.77;;
14738;SDS011;7461;52.440;13.540;2023-03-01T04:30:00;26.50;;;23.88;;
14738;SDS011;7461;52.440;13.540;2023-03-01T04:32:27;27.33;;;24.92;;
14738;SDS011;7461;52.440;13.540;2023-03-01T04:34:55;29.42;;;26.52;;
14738;SDS011;7461;52.440;13.540;2023-03-01T04:37:22;25.25;;;22.98;;
14738;SDS011;7461;52.440;13.540;2023-03-01T04:39:50;28.38;;;25.52;;
14738;SDS011;7461;52.440;13.540;2023-03-01T04:42:17;23.83;;;21.38;;
14738;SDS011;7461;52.440;13.540;2023-03-01T04:44:46;25.98;;;23.52;;
14738;SDS011;7461;52.440;13.540;2023-03-01T04:47:16;25.98;;;23.75;;
14738;SDS011;7461;52.440;13.540;2023-03-01T04:49:43;26.73;;;24.30;;
14738;SDS011;7461;52.440;13.540;2023-03-01T04:52:11;24.52;;;22.10;;
14738;SDS011;7461;52.440;13.540;2023-03-01T04:54:38;23.55;;;21.60;;
14738;SDS011;7461;52.440;13.540;2023-03-01T04:57:05;28.08;;;25.50;;
14738;SDS011;7461;52.440;13.540;2023-03-01T04:59:32;25.42;;;22.65;;
14738;SDS011;7461;52.440;13.540;2023-03-01T05:02:02;26.13;;;23.77;;
14738;SDS011;7461;52.440;13.540;2023-03-01T05:04:30;25.70;;;23.42;;
14738;SDS011;7461;52.440;13.540;2023-03-01T05:06:57;27.08;;;24.65;;
14738;SDS011;7461;52.440;13.540;2023-03-01T05:09:24;24.73;;;22.73;;
14738;SDS011;7461;52.440;13.540;2023-03-01T05:11:52;25.20;;;22.67;;
14738;SDS011;7461;52.440;13.540;2023-03-01T05:14:19;24.77;;;22.63;;
14738;SDS011;7461;52.440;13.540;2023-03-01T05:16:46;26.63;;;24.10;;
14738;SDS011;7461;52.440;13.540;2023-03-01T05:19:15;26.48;;;23.73;;
14738;SDS011;7461;52.440;13.540;2023-03-01T05:21:47;25.27;;;22.98;;
14738;SDS011;7461;52.440;13.540;2023-03-01T05:24:31;25.38;;;22.92;;
14738;SDS011;7461;52.440;13.540;2023-03-01T05:26:58;24.38;;;22.40;;
14738;SDS011;7461;52.440;13.540;2023-03-01T05:29:27;23.70;;;21.67;;
14738;SDS011;7461;52.440;13.540;2023-03-01T05:31:55;28.10;;;25.65;;
14738;SDS011;7461;52.440;13.540;2023-03-01T05:34:25;25.95;;;23.13;;
14738;SDS011;7461;52.440;13.540;2023-03-01T05:36:52;25.25;;;22.85;;
14738;SDS011;7461;52.440;13.540;2023-03-01T05:39:20;25.65;;;23.20;;
14738;SDS011;7461;52.440;13.540;2023-03-01T05:41:47;22.95;;;20.90;;
14738;SDS011;7461;52.440;13.540;2023-03-01T05:44:15;26.13;;;23.77;;
14738;SDS011;7461;52.440;13.540;2023-03-01T05:46:42;24.55;;;22.45;;
14738;SDS011;7461;52.440;13.540;2023-03-01T05:49:10;26.38;;;23.80;;
14738;SDS011;7461;52.440;13.540;2023-03-01T05:51:39;23.33;;;21.08;;
14738;SDS011;7461;52.440;13.540;2023-03-01T05:54:07;24.65;;;22.38;;
14738;SDS011;7461;52.440;13.540;2023-03-01T05:56:35;24.70;;;22.88;;
14738;SDS011;7461;52.440;13.540;2023-03-01T05:59:03;23.83;;;21.73;;
14738;SDS011;7461;52.440;13.540;2023-03-01T06:01:31;27.38;;;24.83;;
14738;SDS011;7461;52.440;13.540;2023-03-01T06:03:58;25.73;;;23.33;;
14738;SDS011;7461;52.440;13.540;2023-03-01T06:06:26;24.45;;;22.17;;
14738;SDS011;7461;52.440;13.540;2023-03-01T06:08:54;26.75;;;24.42;;
14738;SDS011;7461;52.440;13.540;2023-03-01T06:11:22;25.77;;;23.20;;
14738;SDS011;7461;52.440;13.540;2023-03-01T06:13:49;25.42;;;23.27;;
14738;SDS011;7461;52.440;13.540;2023-03-01T06:16:16;26.75;;;24.33;;
14738;SDS011;7461;52.440;13.540;2023-03-01T06:18:44;25.50;;;23.20;;
14738;SDS011;7461;52.440;13.540;2023-03-01T06:21:11;27.70;;;24.98;;
14738;SDS011;7461;52.440;13.540;2023-03-01T06:23:38;25.85;;;23.27;;
14738;SDS011;7461;52.440;13.540;2023-03-01T06:26:07;33.15;;;29.85;;
14738;SDS011;7461;52.440;13.540;2023-03-01T06:28:36;28.23;;;25.58;;
14738;SDS011;7461;52.440;13.540;2023-03-01T06:31:04;32.25;;;28.70;;
14738;SDS011;7461;52.440;13.540;2023-03-01T06:33:33;31.05;;;28.25;;
14738;SDS011;7461;52.440;13.540;2023-03-01T06:36:01;30.75;;;27.75;;
14738;SDS011;7461;52.440;13.540;2023-03-01T06:38:28;30.85;;;27.98;;
14738;SDS011;7461;52.440;13.540;2023-03-01T06:40:55;34.25;;;30.48;;
14738;SDS011;7461;52.440;13.540;2023-03-01T06:43:24;35.42;;;31.90;;
14738;SDS011;7461;52.440;13.540;2023-03-01T06:45:51;35.35;;;32.13;;
14738;SDS011;7461;52.440;13.540;2023-03-01T06:48:19;35.15;;;31.55;;
14738;SDS011;7461;52.440;13.540;2023-03-01T06:50:46;34.80;;;31.55;;
14738;SDS011;7461;52.440;13.540;2023-03-01T06:53:13;36.08;;;32.60;;
14738;SDS011;7461;52.440;13.540;2023-03-01T06:55:40;36.67;;;33.45;;
14738;SDS011;7461;52.440;13.540;2023-03-01T06:58:08;28.45;;;26.15;;
14738;SDS011;7461;52.440;13.540;2023-03-01T07:00:37;29.52;;;26.98;;
14738;SDS011;7461;52.440;13.540;2023-03-01T07:03:05;31.23;;;28.35;;
14738;SDS011;7461;52.440;13.540;2023-03-01T07:05:33;28.08;;;25.73;;
14738;SDS011;7461;52.440;13.540;2023-03-01T07:08:00;29.83;;;27.25;;
14738;SDS011;7461;52.440;13.540;2023-03-01T07:10:28;30.27;;;27.50;;
14738;SDS011;7461;52.440;13.540;2023-03-01T07:12:55;29.23;;;26.60;;
14738;SDS011;7461;52.440;13.540;2023-03-01T07:15:23;29.95;;;27.30;;
14738;SDS011;7461;52.440;13.540;2023-03-01T07:17:52;29.10;;;26.27;;
14738;SDS011;7461;52.440;13.540;2023-03-01T07:20:19;30.05;;;27.52;;
14738;SDS011;7461;52.440;13.540;2023-03-01T07:22:49;29.30;;;26.60;;
14738;SDS011;7461;52.440;13.540;2023-03-01T07:25:16;27.70;;;25.25;;
14738;SDS011;7461;52.440;13.540;2023-03-01T07:27:44;29.90;;;27.42;;
14738;SDS011;7461;52.440;13.540;2023-03-01T07:30:15;29.63;;;27.13;;
14738;SDS011;7461;52.440;13.540;2023-03-01T07:32:43;31.80;;;28.98;;
14738;SDS011;7461;52.440;13.540;2023-03-01T07:35:12;33.65;;;30.45;;
14738;SDS011;7461;52.440;13.540;2023-03-01T07:37:39;36.60;;;32.97;;
14738;SDS011;7461;52.440;13.540;2023-03-01T07:40:07;40.83;;;36.78;;
14738;SDS011;7461;52.440;13.540;2023-03-01T07:42:34;34.55;;;31.27;;
14738;SDS011;7461;52.440;13.540;2023-03-01T07:45:02;31.67;;;28.85;;
14738;SDS011;7461;52.440;13.540;2023-03-01T07:47:29;33.60;;;30.30;;
14738;SDS011;7461;52.440;13.540;2023-03-01T07:49:57;32.05;;;29.23;;
14738;SDS011;7461;52.440;13.540;2023-03-01T07:52:25;31.15;;;27.92;;
14738;SDS011;7461;52.440;13.540;2023-03-01T07:54:53;30.45;;;27.77;;
14738;SDS011;7461;52.440;13.540;2023-03-01T07:57:20;31.88;;;28.38;;
14738;SDS011;7461;52.440;13.540;2023-03-01T07:59:47;32.22;;;28.83;;
14738;SDS011;7461;52.440;13.540;2023-03-01T08:02:15;34.65;;;30.42;;
14738;SDS011;7461;52.440;13.540;2023-03-01T08:04:42;31.35;;;28.48;;
14738;SDS011;7461;52.440;13.540;2023-03-01T08:07:09;34.08;;;30.70;;
14738;SDS011;7461;52.440;13.540;2023-03-01T08:09:38;29.05;;;26.65;;
14738;SDS011;7461;52.440;13.540;2023-03-01T08:12:05;28.95;;;26.45;;
14738;SDS011;7461;52.440;13.540;2023-03-01T08:14:33;30.85;;;27.98;;
14738;SDS011;7461;52.440;13.540;2023-03-01T08:17:00;29.55;;;26.70;;
14738;SDS011;7461;52.440;13.540;2023-03-01T08:19:28;29.88;;;27.02;;
14738;SDS011;7461;52.440;13.540;2023-03-01T08:21:55;27.98;;;25.65;;
14738;SDS011;7461;52.440;13.540;2023-03-01T08:24:25;28.27;;;25.42;;
14738;SDS011;7461;52.440;13.540;2023-03-01T08:26:53;27.23;;;24.73;;
14738;SDS011;7461;52.440;13.540;2023-03-01T08:29:21;28.80;;;26.40;;
14738;SDS011;7461;52.440;13.540;2023-03-01T08:31:49;31.60;;;28.50;;
14738;SDS011;7461;52.440;13.540;2023-03-01T08:34:17;27.92;;;25.52;;
14738;SDS011;7461;52.440;13.540;2023-03-01T08:36:45;23.10;;;21.08;;
14738;SDS011;7461;52.440;13.540;2023-03-01T08:39:13;26.23;;;24.02;;
14738;SDS011;7461;52.440;13.540;2023-03-01T08:41:40;24.70;;;22.52;;
14738;SDS011;7461;52.440;13.540;2023-03-01T08:44:10;20.83;;;19.13;;
14738;SDS011;7461;52.440;13.540;2023-03-01T08:46:38;23.50;;;21.50;;
14738;SDS011;7461;52.440;13.540;2023-03-01T08:49:06;21.88;;;20.15;;
14738;SDS011;7461;52.440;13.540;2023-03-01T08:51:34;22.63;;;20.60;;
14738;SDS011;7461;52.440;13.540;2023-03-01T08:54:02;20.77;;;19.10;;
14738;SDS011;7461;52.440;13.540;2023-03-01T08:56:30;23.38;;;20.77;;
14738;SDS011;7461;52.440;13.540;2023-03-01T08:58:58;21.73;;;19.88;;
14738;SDS011;7461;52.440;13.540;2023-03-01T09:01:26;20.70;;;18.98;;
14738;SDS011;7461;52.440;13.540;2023-03-01T09:03:54;18.67;;;17.08;;
14738;SDS011;7461;52.440;13.540;2023-03-01T09:06:21;20.40;;;18.67;;
14738;SDS011;7461;52.440;13.540;2023-03-01T09:08:49;17.35;;;15.85;;
14738;SDS011;7461;52.440;13.540;2023-03-01T09:11:17;16.23;;;14.90;;
14738;SDS011;7461;52.440;13.540;2023-03-01T09:13:45;15.40;;;14.05;;
14738;SDS011;7461;52.440;13.540;2023-03-01T09:16:13;18.15;;;16.63;;
14738;SDS011;7461;52.440;13.540;2023-03-01T09:18:43;16.00;;;14.65;;
14738;SDS011;7461;52.440;13.540;2023-03-01T09:21:12;14.93;;;13.68;;
14738;SDS011;7461;52.440;13.540;2023-03-01T09:23:40;13.93;;;12.63;;
14738;SDS011;7461;52.440;13.540;2023-03-01T09:26:07;13.98;;;12.63;;
14738;SDS011;7461;52.440;13.540;2023-03-01T09:28:35;13.50;;;12.30;;
14738;SDS011;7461;52.440;13.540;2023-03-01T09:31:02;13.38;;;12.15;;
14738;SDS011;7461;52.440;13.540;2023-03-01T09:33:30;13.98;;;12.68;;
14738;SDS011;7461;52.440;13.540;2023-03-01T09:35:59;13.85;;;12.48;;
14738;SDS011;7461;52.440;13.540;2023-03-01T09:38:27;13.85;;;12.55;;
14738;SDS011;7461;52.440;13.540;2023-03-01T09:40:54;13.68;;;12.55;;
14738;SDS011;7461;52.440;13.540;2023-03-01T09:43:23;11.25;;;10.35;;
14738;SDS011;7461;52.440;13.540;2023-03-01T09:45:54;12.70;;;11.60;;
14738;SDS011;7461;52.440;13.540;2023-03-01T09:48:24;13.13;;;11.27;;
14738;SDS011;7461;52.440;13.540;2023-03-01T09:50:52;11.10;;;10.00;;
14738;SDS011;7461;52.440;13.540;2023-03-01T09:53:22;11.38;;;10.30;;
14738;SDS011;7461;52.440;13.540;2023-03-01T09:55:51;16.45;;;12.93;;
14738;SDS011;7461;52.440;13.540;2023-03-01T09:58:27;12.43;;;11.32;;
14738;SDS011;7461;52.440;13.540;2023-03-01T10:00:57;9.07;;;8.38;;
14738;SDS011;7461;52.440;13.540;2023-03-01T10:03:27;8.85;;;8.05;;
14738;SDS011;7461;52.440;13.540;2023-03-01T10:05:56;8.38;;;7.47;;
14738;SDS011;7461;52.440;13.540;2023-03-01T10:08:28;8.60;;;7.80;;
14738;SDS011;7461;52.440;13.540;2023-03-01T10:10:58;9.40;;;8.50;;
14738;SDS011;7461;52.440;13.540;2023-03-01T10:13:27;9.45;;;8.52;;
14738;SDS011;7461;52.440;13.540;2023-03-01T10:15:57;9.18;;;8.48;;
14738;SDS011;7461;52.440;13.540;2023-03-01T10:18:27;6.97;;;6.38;;
14738;SDS011;7461;52.440;13.540;2023-03-01T10:20:56;9.13;;;8.35;;
14738;SDS011;7461;52.440;13.540;2023-03-01T10:23:24;9.38;;;8.65;;
14738;SDS011;7461;52.440;13.540;2023-03-01T10:26:00;9.32;;;8.52;;
14738;SDS011;7461;52.440;13.540;2023-03-01T10:28:31;10.45;;;9.57;;
14738;SDS011;7461;52.440;13.540;2023-03-01T10:31:02;9.38;;;8.55;;
14738;SDS011;7461;52.440;13.540;2023-03-01T10:33:31;10.52;;;9.73;;
14738;SDS011;7461;52.440;13.540;2023-03-01T10:35:59;9.82;;;9.02;;
14738;SDS011;7461;52.440;13.540;2023-03-01T10:38:26;10.82;;;9.88;;
14738;SDS011;7461;52.440;13.540;2023-03-01T10:40:58;10.55;;;9.70;;
14738;SDS011;7461;52.440;13.540;2023-03-01T10:43:27;10.15;;;9.32;;
14738;SDS011;7461;52.440;13.540;2023-03-01T10:45:57;9.60;;;8.93;;
14738;SDS011;7461;52.440;13.540;2023-03-01T10:48:25;9.38;;;8.57;;
14738;SDS011;7461;52.440;13.540;2023-03-01T10:51:04;9.80;;;8.88;;
14738;SDS011;7461;52.440;13.540;2023-03-01T10:53:32;10.05;;;9.15;;
14738;SDS011;7461;52.440;13.540;2023-03-01T10:56:02;9.25;;;8.52;;
14738;SDS011;7461;52.440;13.540;2023-03-01T10:58:30;11.85;;;10.75;;
14738;SDS011;7461;52.440;13.540;2023-03-01T11:00:58;9.77;;;8.60;;
14738;SDS011;7461;52.440;13.540;2023-03-01T11:03:26;10.35;;;9.32;;
14738;SDS011;7461;52.440;13.540;2023-03-01T11:05:58;10.98;;;9.82;;
14738;SDS011;7461;52.440;13.540;2023-03-01T11:08:36;8.93;;;8.00;;
14738;SDS011;7461;52.440;13.540;2023-03-01T11:11:06;8.13;;;7.30;;
14738;SDS011;7461;52.440;13.540;2023-03-01T11:13:34;8.52;;;7.78;;
14738;SDS011;7461;52.440;13.540;2023-03-01T11:16:02;7.32;;;6.68;;
14738;SDS011;7461;52.440;13.540;2023-03-01T11:18:30;7.97;;;7.30;;
14738;SDS011;7461;52.440;13.540;2023-03-01T11:20:58;9.52;;;8.73;;
14738;SDS011;7461;52.440;13.540;2023-03-01T11:23:26;7.57;;;6.88;;
14738;SDS011;7461;52.440;13.540;2023-03-01T11:25:55;9.23;;;7.97;;
14738;SDS011;7461;52.440;13.540;2023-03-01T11:28:24;9.20;;;8.23;;
14738;SDS011;7461;52.440;13.540;2023-03-01T11:30:53;7.85;;;7.20;;
14738;SDS011;7461;52.440;13.540;2023-03-01T11:33:24;14.48;;;9.15;;
14738;SDS011;7461;52.440;13.540;2023-03-01T11:36:00;8.93;;;8.13;;
14738;SDS011;7461;52.440;13.540;2023-03-01T11:38:29;7.75;;;7.15;;
14738;SDS011;7461;52.440;13.540;2023-03-01T11:41:00;8.18;;;7.43;;
14738;SDS011;7461;52.440;13.540;2023-03-01T11:43:33;7.63;;;7.03;;
14738;SDS011;7461;52.440;13.540;2023-03-01T11:46:13;8.10;;;6.72;;
14738;SDS011;7461;52.440;13.540;2023-03-01T11:48:50;6.95;;;6.35;;
14738;SDS011;7461;52.440;13.540;2023-03-01T11:51:21;9.13;;;8.43;;
14738;SDS011;7461;52.440;13.540;2023-03-01T11:53:56;6.55;;;5.88;;
14738;SDS011;7461;52.440;13.540;2023-03-01T11:56:28;7.22;;;6.63;;
14738;SDS011;7461;52.440;13.540;2023-03-01T12:01:51;7.20;;;6.45;;
14738;SDS011;7461;52.440;13.540;2023-03-01T12:07:24;6.43;;;5.95;;
14738;SDS011;7461;52.440;13.540;2023-03-01T12:09:57;7.32;;;5.68;;
14738;SDS011;7461;52.440;13.540;2023-03-01T12:12:33;7.15;;;6.50;;
14738;SDS011;7461;52.440;13.540;2023-03-01T12:15:10;7.10;;;6.07;;
14738;SDS011;7461;52.440;13.540;2023-03-01T12:20:29;5.75;;;5.25;;
14738;SDS011;7461;52.440;13.540;2023-03-01T12:23:07;4.30;;;3.88;;
14738;SDS011;7461;52.440;13.540;2023-03-01T12:25:37;5.30;;;3.42;;
14738;SDS011;7461;52.440;13.540;2023-03-01T12:31:04;4.70;;;4.22;;
14738;SDS011;7461;52.440;13.540;2023-03-01T12:33:37;4.65;;;3.30;;
14738;SDS011;7461;52.440;13.540;2023-03-01T12:36:11;3.33;;;3.03;;
14738;SDS011;7461;52.440;13.540;2023-03-01T12:38:42;6.13;;;3.47;;
14738;SDS011;7461;52.440;13.540;2023-03-01T12:41:26;3.65;;;3.42;;
14738;SDS011;7461;52.440;13.540;2023-03-01T12:43:58;4.78;;;3.33;;
14738;SDS011;7461;52.440;13.540;2023-03-01T12:46:34;3.88;;;3.63;;
14738;SDS011;7461;52.440;13.540;2023-03-01T12:49:08;4.15;;;3.75;;
14738;SDS011;7461;52.440;13.540;2023-03-01T12:51:38;3.95;;;3.65;;
14738;SDS011;7461;52.440;13.540;2023-03-01T12:54:07;5.22;;;3.15;;
14738;SDS011;7461;52.440;13.540;2023-03-01T12:56:38;4.10;;;3.75;;
14738;SDS011;7461;52.440;13.540;2023-03-01T12:59:08;3.97;;;3.50;;
14738;SDS011;7461;52.440;13.540;2023-03-01T13:01:40;4.97;;;4.05;;
14738;SDS011;7461;52.440;13.540;2023-03-01T13:04:13;4.15;;;3.85;;
14738;SDS011;7461;52.440;13.540;2023-03-01T13:06:44;4.72;;;3.47;;
14738;SDS011;7461;52.440;13.540;2023-03-01T13:09:18;3.55;;;2.75;;
14738;SDS011;7461;52.440;13.540;2023-03-01T13:11:46;3.15;;;2.80;;
14738;SDS011;7461;52.440;13.540;2023-03-01T13:16:59;4.95;;;4.50;;
14738;SDS011;7461;52.440;13.540;2023-03-01T13:19:27;5.85;;;5.28;;
14738;SDS011;7461;52.440;13.540;2023-03-01T13:21:58;3.47;;;3.17;;
14738;SDS011;7461;52.440;13.540;2023-03-01T13:24:26;4.35;;;4.05;;
14738;SDS011;7461;52.440;13.540;2023-03-01T13:27:21;4.38;;;3.90;;
14738;SDS011;7461;52.440;13.540;2023-03-01T13:29:54;3.80;;;3.47;;
14738;SDS011;7461;52.440;13.540;2023-03-01T13:32:22;4.25;;;3.85;;
14738;SDS011;7461;52.440;13.540;2023-03-01T13:34:54;3.17;;;2.92;;
14738;SDS011;7461;52.440;13.540;2023-03-01T13:37:24;3.58;;;3.28;;
14738;SDS011;7461;52.440;13.540;2023-03-01T13:39:54;3.03;;;2.72;;
14738;SDS011;7461;52.440;13.540;2023-03-01T13:45:21;4.80;;;3.42;;
14738;SDS011;7461;52.440;13.540;2023-03-01T13:47:50;3.50;;;3.20;;
14738;SDS011;7461;52.440;13.540;2023-03-01T13:50:20;3.67;;;3.38;;
14738;SDS011;7461;52.440;13.540;2023-03-01T13:52:50;5.07;;;3.05;;
14738;SDS011;7461;52.440;13.540;2023-03-01T13:55:18;4.78;;;3.88;;
14738;SDS011;7461;52.440;13.540;2023-03-01T13:57:47;3.08;;;2.88;;
14738;SDS011;7461;52.440;13.540;2023-03-01T14:00:25;5.82;;;4.55;;
14738;SDS011;7461;52.440;13.540;2023-03-01T14:02:59;3.70;;;3.40;;
14738;SDS011;7461;52.440;13.540;2023-03-01T14:05:27;3.67;;;3.40;;
14738;SDS011;7461;52.440;13.540;2023-03-01T14:07:56;5.25;;;4.78;;
14738;SDS011;7461;52.440;13.540;2023-03-01T14:10:25;5.10;;;4.60;;
14738;SDS011;7461;52.440;13.540;2023-03-01T14:12:55;5.05;;;4.65;;
14738;SDS011;7461;52.440;13.540;2023-03-01T14:15:27;5.13;;;4.72;;
14738;SDS011;7461;52.440;13.540;2023-03-01T14:17:58;3.47;;;3.28;;
14738;SDS011;7461;52.440;13.540;2023-03-01T14:20:27;4.03;;;3.58;;
14738;SDS011;7461;52.440;13.540;2023-03-01T14:22:58;5.15;;;4.68;;
14738;SDS011;7461;52.440;13.540;2023-03-01T14:25:27;5.07;;;4.28;;
14738;SDS011;7461;52.440;13.540;2023-03-01T14:27:59;4.13;;;3.72;;
14738;SDS011;7461;52.440;13.540;2023-03-01T14:30:27;4.18;;;3.80;;
14738;SDS011;7461;52.440;13.540;2023-03-01T14:32:58;3.47;;;3.28;;
14738;SDS011;7461;52.440;13.540;2023-03-01T14:35:26;5.10;;;3.80;;
14738;SDS011;7461;52.440;13.540;2023-03-01T14:37:54;4.57;;;4.28;;
14738;SDS011;7461;52.440;13.540;2023-03-01T14:40:24;3.72;;;3.42;;
14738;SDS011;7461;52.440;13.540;2023-03-01T14:42:52;4.32;;;3.97;;
14738;SDS011;7461;52.440;13.540;2023-03-01T14:45:19;3.95;;;3.55;;
14738;SDS011;7461;52.440;13.540;2023-03-01T14:47:47;3.90;;;3.60;;
14738;SDS011;7461;52.440;13.540;2023-03-01T14:50:22;3.72;;;3.50;;
14738;SDS011;7461;52.440;13.540;2023-03-01T14:52:51;3.90;;;3.13;;
14738;SDS011;7461;52.440;13.540;2023-03-01T14:55:19;3.55;;;3.33;;
14738;SDS011;7461;52.440;13.540;2023-03-01T14:57:49;3.83;;;3.53;;
14738;SDS011;7461;52.440;13.540;2023-03-01T15:00:17;3.50;;;3.25;;